sensor_id;sensor_type;location;lat;lon;timestamp;pressure;altitude;pressure_sealevel;temperature;humidity
24762;BME280;12865;51.934;10.330;2023-10-09T00:01:05;99580.28;;;12.87;100.00
24762;BME280;12865;51.934;10.330;2023-10-09T00:03:49;99573.81;;;12.80;100.00
24762;BME280;12865;51.934;10.330;2023-10-09T00:06:20;99579.75;;;12.74;100.00
24762;BME280;12865;51.934;10.330;2023-10-09T00:09:06;99575.84;;;12.68;100.00
24762;BME280;12865;51.934;10.330;2023-10-09T00:11:56;99577.34;;;12.71;100.00
24762;BME280;12865;51.934;10.330;2023-10-09T00:14:29;99569.06;;;12.74;100.00
24762;BME280;12865;51.934;10.330;2023-10-09T00:16:56;99553.69;;;12.76;100.00
24762;BME280;12865;51.934;10.330;2023-10-09T00:19:42;99535.97;;;12.75;100.00
24762;BME280;12865;51.934;10.330;2023-10-09T00:22:08;99531.00;;;12.80;100.00
24762;BME280;12865;51.934;10.330;2023-10-09T00:24:45;99531.00;;;12.80;100.00
24762;BME280;12865;51.934;10.330;2023-10-09T00:27:11;99520.00;;;12.83;100.00
24762;BME280;12865;51.934;10.330;2023-10-09T00:29:38;99514.09;;;12.89;100.00
24762;BME280;12865;51.934;10.330;2023-10-09T00:32:15;99508.88;;;12.87;100.00
24762;BME280;12865;51.934;10.330;2023-10-09T00:34:57;99497.91;;;12.81;100.00
24762;BME280;12865;51.934;10.330;2023-10-09T00:37:27;99494.09;;;12.83;100.00
24762;BME280;12865;51.934;10.330;2023-10-09T00:39:59;99493.09;;;12.84;100.00
24762;BME280;12865;51.934;10.330;2023-10-09T00:42:24;99487.59;;;12.86;100.00
24762;BME280;12865;51.934;10.330;2023-10-09T00:45:01;99470.47;;;12.79;100.00
24762;BME280;12865;51.934;10.330;2023-10-09T00:47:34;99444.53;;;12.79;100.00
24762;BME280;12865;51.934;10.330;2023-10-09T00:50:06;99432.72;;;12.82;100.00
24762;BME280;12865;51.934;10.330;2023-10-09T00:52:38;99426.66;;;12.80;100.00
24762;BME280;12865;51.934;10.330;2023-10-09T00:55:17;99418.13;;;12.94;100.00
24762;BME280;12865;51.934;10.330;2023-10-09T00:57:48;99417.00;;;13.42;100.00
24762;BME280;12865;51.934;10.330;2023-10-09T01:00:16;99423.66;;;13.73;100.00
24762;BME280;12865;51.934;10.330;2023-10-09T01:02:59;99405.22;;;13.96;100.00
24762;BME280;12865;51.934;10.330;2023-10-09T01:05:57;99392.47;;;14.15;100.00
24762;BME280;12865;51.934;10.330;2023-10-09T01:08:27;99401.56;;;14.31;100.00
24762;BME280;12865;51.934;10.330;2023-10-09T01:11:00;99409.25;;;14.43;100.00
24762;BME280;12865;51.934;10.330;2023-10-09T01:13:39;99413.44;;;14.46;100.00
24762;BME280;12865;51.934;10.330;2023-10-09T01:16:22;99397.03;;;14.49;100.00
24762;BME280;12865;51.934;10.330;2023-10-09T01:18:57;99388.66;;;14.52;100.00
24762;BME280;12865;51.934;10.330;2023-10-09T01:21:23;99382.47;;;14.60;100.00
24762;BME280;12865;51.934;10.330;2023-10-09T01:23:54;99378.63;;;14.62;100.00
24762;BME280;12865;51.934;10.330;2023-10-09T01:29:14;99361.00;;;14.60;100.00
24762;BME280;12865;51.934;10.330;2023-10-09T01:31:50;99359.00;;;14.62;100.00
24762;BME280;12865;51.934;10.330;2023-10-09T01:36:52;99342.72;;;14.55;100.00
24762;BME280;12865;51.934;10.330;2023-10-09T01:39:24;99352.50;;;14.64;100.00
24762;BME280;12865;51.934;10.330;2023-10-09T01:41:52;99355.00;;;14.66;100.00
24762;BME280;12865;51.934;10.330;2023-10-09T01:44:27;99353.34;;;14.65;100.00
24762;BME280;12865;51.934;10.330;2023-10-09T01:46:56;99369.28;;;14.74;100.00
24762;BME280;12865;51.934;10.330;2023-10-09T01:49:23;99364.25;;;14.71;100.00
24762;BME280;12865;51.934;10.330;2023-10-09T01:51:57;99372.97;;;14.73;100.00
24762;BME280;12865;51.934;10.330;2023-10-09T01:54:39;99376.19;;;14.77;100.00
24762;BME280;12865;51.934;10.330;2023-10-09T01:57:12;99379.06;;;14.83;100.00
24762;BME280;12865;51.934;10.330;2023-10-09T01:59:44;99380.22;;;14.81;100.00
24762;BME280;12865;51.934;10.330;2023-10-09T02:02:13;99381.59;;;14.85;100.00
24762;BME280;12865;51.934;10.330;2023-10-09T02:04:59;99385.94;;;14.94;100.00
24762;BME280;12865;51.934;10.330;2023-10-09T02:07:35;99381.44;;;14.94;100.00
24762;BME280;12865;51.934;10.330;2023-10-09T02:10:15;99369.00;;;14.85;100.00
24762;BME280;12865;51.934;10.330;2023-10-09T02:12:50;99383.44;;;14.84;100.00
24762;BME280;12865;51.934;10.330;2023-10-09T02:15:30;99370.00;;;14.84;100.00
24762;BME280;12865;51.934;10.330;2023-10-09T02:18:20;99374.19;;;14.87;100.00
24762;BME280;12865;51.934;10.330;2023-10-09T02:21:08;99371.53;;;14.95;100.00
24762;BME280;12865;51.934;10.330;2023-10-09T02:23:35;99375.03;;;14.87;100.00
24762;BME280;12865;51.934;10.330;2023-10-09T02:26:17;99351.56;;;14.89;100.00
24762;BME280;12865;51.934;10.330;2023-10-09T02:28:58;99343.47;;;14.81;100.00
24762;BME280;12865;51.934;10.330;2023-10-09T02:31:50;99342.34;;;15.00;100.00
24762;BME280;12865;51.934;10.330;2023-10-09T02:34:20;99333.09;;;14.94;100.00
24762;BME280;12865;51.934;10.330;2023-10-09T02:36:50;99318.00;;;14.93;100.00
24762;BME280;12865;51.934;10.330;2023-10-09T02:39:24;99319.03;;;14.92;100.00
24762;BME280;12865;51.934;10.330;2023-10-09T02:41:55;99309.94;;;14.93;100.00
24762;BME280;12865;51.934;10.330;2023-10-09T02:44:26;99307.59;;;14.90;100.00
24762;BME280;12865;51.934;10.330;2023-10-09T02:49:20;99306.59;;;14.91;100.00
24762;BME280;12865;51.934;10.330;2023-10-09T02:51:46;99309.09;;;14.85;100.00
24762;BME280;12865;51.934;10.330;2023-10-09T02:54:18;99302.41;;;14.89;100.00
24762;BME280;12865;51.934;10.330;2023-10-09T02:56:51;99287.44;;;14.86;100.00
24762;BME280;12865;51.934;10.330;2023-10-09T02:59:20;99283.44;;;14.82;100.00
24762;BME280;12865;51.934;10.330;2023-10-09T03:01:47;99279.22;;;14.80;100.00
24762;BME280;12865;51.934;10.330;2023-10-09T03:04:13;99271.34;;;14.70;100.00
24762;BME280;12865;51.934;10.330;2023-10-09T03:06:39;99281.56;;;14.75;100.00
24762;BME280;12865;51.934;10.330;2023-10-09T03:09:26;99276.69;;;14.62;100.00
24762;BME280;12865;51.934;10.330;2023-10-09T03:12:02;99272.47;;;14.60;100.00
24762;BME280;12865;51.934;10.330;2023-10-09T03:14:35;99271.13;;;14.56;100.00
24762;BME280;12865;51.934;10.330;2023-10-09T03:17:04;99263.75;;;14.58;100.00
24762;BME280;12865;51.934;10.330;2023-10-09T03:19:31;99247.47;;;14.59;100.00
24762;BME280;12865;51.934;10.330;2023-10-09T03:22:02;99255.38;;;14.61;100.00
24762;BME280;12865;51.934;10.330;2023-10-09T03:24:28;99242.31;;;14.58;100.00
24762;BME280;12865;51.934;10.330;2023-10-09T03:26:53;99241.00;;;14.78;100.00
24762;BME280;12865;51.934;10.330;2023-10-09T03:29:21;99243.81;;;14.68;100.00
24762;BME280;12865;51.934;10.330;2023-10-09T03:31:47;99250.03;;;14.77;100.00
24762;BME280;12865;51.934;10.330;2023-10-09T03:34:15;99254.56;;;14.76;100.00
24762;BME280;12865;51.934;10.330;2023-10-09T03:36:41;99253.88;;;14.74;100.00
24762;BME280;12865;51.934;10.330;2023-10-09T03:39:09;99245.50;;;14.77;100.00
24762;BME280;12865;51.934;10.330;2023-10-09T03:41:51;99252.22;;;14.89;100.00
24762;BME280;12865;51.934;10.330;2023-10-09T03:44:16;99260.09;;;14.83;100.00
24762;BME280;12865;51.934;10.330;2023-10-09T03:46:45;99252.22;;;14.81;100.00
24762;BME280;12865;51.934;10.330;2023-10-09T03:49:10;99255.41;;;14.85;100.00
24762;BME280;12865;51.934;10.330;2023-10-09T03:51:41;99247.53;;;14.91;100.00
24762;BME280;12865;51.934;10.330;2023-10-09T03:54:07;99241.47;;;14.81;100.00
24762;BME280;12865;51.934;10.330;2023-10-09T03:56:33;99253.56;;;14.85;100.00
24762;BME280;12865;51.934;10.330;2023-10-09T03:59:00;99251.22;;;14.82;100.00
24762;BME280;12865;51.934;10.330;2023-10-09T04:01:26;99238.09;;;14.79;100.00
24762;BME280;12865;51.934;10.330;2023-10-09T04:03:59;99215.81;;;14.87;100.00
24762;BME280;12865;51.934;10.330;2023-10-09T04:06:30;99197.03;;;14.87;100.00
24762;BME280;12865;51.934;10.330;2023-10-09T04:09:01;99201.06;;;14.83;100.00
24762;BME280;12865;51.934;10.330;2023-10-09T04:14:15;99196.84;;;14.88;100.00
24762;BME280;12865;51.934;10.330;2023-10-09T04:16:58;99182.91;;;14.93;100.00
24762;BME280;12865;51.934;10.330;2023-10-09T04:19:44;99179.44;;;14.84;100.00
24762;BME280;12865;51.934;10.330;2023-10-09T04:22:39;99187.78;;;14.81;100.00
24762;BME280;12865;51.934;10.330;2023-10-09T04:25:08;99188.28;;;14.93;100.00
24762;BME280;12865;51.934;10.330;2023-10-09T04:27:40;99175.72;;;14.77;100.00
24762;BME280;12865;51.934;10.330;2023-10-09T04:30:06;99173.53;;;14.81;100.00
24762;BME280;12865;51.934;10.330;2023-10-09T04:32:32;99162.81;;;14.81;100.00
24762;BME280;12865;51.934;10.330;2023-10-09T04:35:00;99176.06;;;14.74;100.00
24762;BME280;12865;51.934;10.330;2023-10-09T04:37:43;99181.09;;;14.77;100.00
24762;BME280;12865;51.934;10.330;2023-10-09T04:40:13;99192.84;;;14.76;100.00
24762;BME280;12865;51.934;10.330;2023-10-09T04:42:58;99194.53;;;14.77;100.00
24762;BME280;12865;51.934;10.330;2023-10-09T04:45:25;99192.31;;;14.73;100.00
24762;BME280;12865;51.934;10.330;2023-10-09T04:48:11;99203.88;;;14.73;100.00
24762;BME280;12865;51.934;10.330;2023-10-09T04:50:36;99199.53;;;14.72;100.00
24762;BME280;12865;51.934;10.330;2023-10-09T04:53:12;99204.88;;;14.72;100.00
24762;BME280;12865;51.934;10.330;2023-10-09T04:56:00;99201.38;;;14.72;100.00
24762;BME280;12865;51.934;10.330;2023-10-09T04:58:29;99222.69;;;14.73;100.00
24762;BME280;12865;51.934;10.330;2023-10-09T05:00:58;99218.00;;;14.75;100.00
24762;BME280;12865;51.934;10.330;2023-10-09T05:03:23;99219.16;;;14.73;100.00
24762;BME280;12865;51.934;10.330;2023-10-09T05:05:52;99217.47;;;14.72;100.00
24762;BME280;12865;51.934;10.330;2023-10-09T05:08:25;99235.25;;;14.73;100.00
24762;BME280;12865;51.934;10.330;2023-10-09T05:11:03;99241.81;;;14.70;100.00
24762;BME280;12865;51.934;10.330;2023-10-09T05:13:32;99246.19;;;14.71;100.00
24762;BME280;12865;51.934;10.330;2023-10-09T05:16:15;99244.00;;;14.75;100.00
24762;BME280;12865;51.934;10.330;2023-10-09T05:18:50;99249.88;;;14.78;100.00
24762;BME280;12865;51.934;10.330;2023-10-09T05:23:57;99255.38;;;14.69;100.00
24762;BME280;12865;51.934;10.330;2023-10-09T05:26:44;99247.50;;;14.67;100.00
24762;BME280;12865;51.934;10.330;2023-10-09T05:29:19;99251.19;;;14.66;100.00
24762;BME280;12865;51.934;10.330;2023-10-09T05:31:50;99255.53;;;14.67;100.00
24762;BME280;12865;51.934;10.330;2023-10-09T05:34:35;99252.53;;;14.62;100.00
24762;BME280;12865;51.934;10.330;2023-10-09T05:37:20;99251.66;;;14.53;100.00
24762;BME280;12865;51.934;10.330;2023-10-09T05:39:59;99255.72;;;14.58;100.00
24762;BME280;12865;51.934;10.330;2023-10-09T05:42:25;99264.25;;;14.61;100.00
24762;BME280;12865;51.934;10.330;2023-10-09T05:47:50;99263.41;;;14.61;100.00
24762;BME280;12865;51.934;10.330;2023-10-09T05:50:25;99261.41;;;14.63;100.00
24762;BME280;12865;51.934;10.330;2023-10-09T05:52:55;99267.09;;;14.60;100.00
24762;BME280;12865;51.934;10.330;2023-10-09T05:55:25;99312.59;;;14.69;100.00
24762;BME280;12865;51.934;10.330;2023-10-09T05:58:09;99292.13;;;14.68;100.00
24762;BME280;12865;51.934;10.330;2023-10-09T06:00:51;99289.28;;;14.70;100.00
24762;BME280;12865;51.934;10.330;2023-10-09T06:03:38;99285.53;;;14.54;100.00
24762;BME280;12865;51.934;10.330;2023-10-09T06:06:38;99284.81;;;14.44;100.00
24762;BME280;12865;51.934;10.330;2023-10-09T06:09:14;99286.03;;;14.50;100.00
24762;BME280;12865;51.934;10.330;2023-10-09T06:11:43;99274.59;;;14.40;100.00
24762;BME280;12865;51.934;10.330;2023-10-09T06:14:19;99273.53;;;14.33;100.00
24762;BME280;12865;51.934;10.330;2023-10-09T06:16:52;99265.97;;;14.28;100.00
24762;BME280;12865;51.934;10.330;2023-10-09T06:19:30;99272.50;;;14.26;100.00
24762;BME280;12865;51.934;10.330;2023-10-09T06:21:58;99274.88;;;14.29;100.00
24762;BME280;12865;51.934;10.330;2023-10-09T06:24:47;99263.41;;;14.19;100.00
24762;BME280;12865;51.934;10.330;2023-10-09T06:27:35;99270.63;;;14.18;100.00
24762;BME280;12865;51.934;10.330;2023-10-09T06:30:01;99282.88;;;14.21;100.00
24762;BME280;12865;51.934;10.330;2023-10-09T06:32:40;99312.34;;;14.12;100.00
24762;BME280;12865;51.934;10.330;2023-10-09T06:35:25;99344.81;;;14.09;100.00
24762;BME280;12865;51.934;10.330;2023-10-09T06:37:58;99346.53;;;14.19;100.00
24762;BME280;12865;51.934;10.330;2023-10-09T06:40:27;99336.16;;;14.24;100.00
24762;BME280;12865;51.934;10.330;2023-10-09T06:43:11;99330.16;;;14.22;100.00
24762;BME280;12865;51.934;10.330;2023-10-09T06:45:52;99328.47;;;14.21;100.00
24762;BME280;12865;51.934;10.330;2023-10-09T06:48:27;99319.09;;;14.25;100.00
24762;BME280;12865;51.934;10.330;2023-10-09T06:51:12;99323.16;;;14.29;100.00
24762;BME280;12865;51.934;10.330;2023-10-09T06:54:01;99312.22;;;14.22;100.00
24762;BME280;12865;51.934;10.330;2023-10-09T06:56:33;99309.00;;;14.19;100.00
24762;BME280;12865;51.934;10.330;2023-10-09T06:59:03;99315.06;;;14.21;100.00
24762;BME280;12865;51.934;10.330;2023-10-09T07:01:49;99316.41;;;14.25;100.00
24762;BME280;12865;51.934;10.330;2023-10-09T07:04:33;99314.22;;;14.20;100.00
24762;BME280;12865;51.934;10.330;2023-10-09T07:07:01;99314.22;;;14.20;100.00
24762;BME280;12865;51.934;10.330;2023-10-09T07:09:33;99318.25;;;14.24;100.00
24762;BME280;12865;51.934;10.330;2023-10-09T07:12:10;99320.63;;;14.27;100.00
24762;BME280;12865;51.934;10.330;2023-10-09T07:14:45;99324.94;;;14.20;100.00
24762;BME280;12865;51.934;10.330;2023-10-09T07:17:11;99324.78;;;14.22;100.00
24762;BME280;12865;51.934;10.330;2023-10-09T07:20:02;99323.09;;;14.21;100.00
24762;BME280;12865;51.934;10.330;2023-10-09T07:22:59;99339.25;;;14.37;100.00
24762;BME280;12865;51.934;10.330;2023-10-09T07:25:39;99337.91;;;14.33;100.00
24762;BME280;12865;51.934;10.330;2023-10-09T07:28:21;99326.47;;;14.31;100.00
24762;BME280;12865;51.934;10.330;2023-10-09T07:31:04;99317.97;;;14.35;100.00
24762;BME280;12865;51.934;10.330;2023-10-09T07:33:34;99324.19;;;14.36;100.00
24762;BME280;12865;51.934;10.330;2023-10-09T07:36:19;99326.09;;;14.43;100.00
24762;BME280;12865;51.934;10.330;2023-10-09T07:39:01;99320.38;;;14.46;100.00
24762;BME280;12865;51.934;10.330;2023-10-09T07:41:31;99318.63;;;14.37;100.00
24762;BME280;12865;51.934;10.330;2023-10-09T07:43:56;99309.81;;;14.45;100.00
24762;BME280;12865;51.934;10.330;2023-10-09T07:46:23;99315.03;;;14.46;100.00
24762;BME280;12865;51.934;10.330;2023-10-09T07:49:06;99324.72;;;14.39;100.00
24762;BME280;12865;51.934;10.330;2023-10-09T07:51:38;99323.56;;;14.42;100.00
24762;BME280;12865;51.934;10.330;2023-10-09T07:54:04;99326.41;;;14.40;100.00
24762;BME280;12865;51.934;10.330;2023-10-09T07:56:38;99323.09;;;14.54;100.00
24762;BME280;12865;51.934;10.330;2023-10-09T07:59:07;99320.91;;;14.50;100.00
24762;BME280;12865;51.934;10.330;2023-10-09T08:01:56;99322.56;;;14.51;100.00
24762;BME280;12865;51.934;10.330;2023-10-09T08:04:27;99311.03;;;14.50;100.00
24762;BME280;12865;51.934;10.330;2023-10-09T08:07:13;99311.84;;;14.51;100.00
24762;BME280;12865;51.934;10.330;2023-10-09T08:09:48;99299.94;;;14.53;100.00
24762;BME280;12865;51.934;10.330;2023-10-09T08:12:16;99302.66;;;14.62;100.00
24762;BME280;12865;51.934;10.330;2023-10-09T08:15:05;99297.97;;;14.72;100.00
24762;BME280;12865;51.934;10.330;2023-10-09T08:17:47;99291.63;;;14.65;100.00
24762;BME280;12865;51.934;10.330;2023-10-09T08:20:26;99293.97;;;14.68;100.00
24762;BME280;12865;51.934;10.330;2023-10-09T08:22:53;99286.09;;;14.74;100.00
24762;BME280;12865;51.934;10.330;2023-10-09T08:25:21;99291.78;;;14.79;100.00
24762;BME280;12865;51.934;10.330;2023-10-09T08:27:59;99285.94;;;14.76;100.00
24762;BME280;12865;51.934;10.330;2023-10-09T08:30:48;99277.53;;;14.79;100.00
24762;BME280;12865;51.934;10.330;2023-10-09T08:33:29;99276.06;;;14.84;100.00
24762;BME280;12865;51.934;10.330;2023-10-09T08:36:15;99283.94;;;14.78;100.00
24762;BME280;12865;51.934;10.330;2023-10-09T08:38:47;99267.00;;;14.85;100.00
24762;BME280;12865;51.934;10.330;2023-10-09T08:41:13;99286.44;;;14.79;100.00
24762;BME280;12865;51.934;10.330;2023-10-09T08:43:47;99283.94;;;14.78;100.00
24762;BME280;12865;51.934;10.330;2023-10-09T08:46:18;99265.97;;;14.78;100.00
24762;BME280;12865;51.934;10.330;2023-10-09T08:48:44;99278.06;;;14.90;100.00
24762;BME280;12865;51.934;10.330;2023-10-09T08:51:10;99274.19;;;14.93;100.00
24762;BME280;12865;51.934;10.330;2023-10-09T08:53:37;99263.97;;;14.88;100.00
24762;BME280;12865;51.934;10.330;2023-10-09T08:56:09;99264.13;;;14.95;100.00
24762;BME280;12865;51.934;10.330;2023-10-09T08:58:34;99255.91;;;14.88;100.00
24762;BME280;12865;51.934;10.330;2023-10-09T09:01:02;99261.63;;;14.93;100.00
24762;BME280;12865;51.934;10.330;2023-10-09T09:03:38;99249.41;;;14.99;100.00
24762;BME280;12865;51.934;10.330;2023-10-09T09:06:04;99256.59;;;14.99;100.00
24762;BME280;12865;51.934;10.330;2023-10-09T09:08:31;99242.19;;;15.00;100.00
24762;BME280;12865;51.934;10.330;2023-10-09T09:11:01;99241.16;;;15.09;100.00
24762;BME280;12865;51.934;10.330;2023-10-09T09:16:25;99244.34;;;15.12;100.00
24762;BME280;12865;51.934;10.330;2023-10-09T09:18:59;99237.97;;;15.13;100.00
24762;BME280;12865;51.934;10.330;2023-10-09T09:21:35;99230.75;;;15.14;100.00
24762;BME280;12865;51.934;10.330;2023-10-09T09:24:09;99237.63;;;15.16;100.00
24762;BME280;12865;51.934;10.330;2023-10-09T09:26:46;99225.38;;;15.22;100.00
24762;BME280;12865;51.934;10.330;2023-10-09T09:29:13;99231.75;;;15.21;100.00
24762;BME280;12865;51.934;10.330;2023-10-09T09:31:56;99219.00;;;15.23;100.00
24762;BME280;12865;51.934;10.330;2023-10-09T09:34:48;99218.31;;;15.21;100.00
24762;BME280;12865;51.934;10.330;2023-10-09T09:37:24;99226.38;;;15.29;100.00
24762;BME280;12865;51.934;10.330;2023-10-09T09:40:09;99229.41;;;15.26;100.00
24762;BME280;12865;51.934;10.330;2023-10-09T09:42:56;99218.66;;;15.26;100.00
24762;BME280;12865;51.934;10.330;2023-10-09T09:45:31;99208.75;;;15.35;100.00
24762;BME280;12865;51.934;10.330;2023-10-09T09:48:00;99188.59;;;15.39;100.00
24762;BME280;12865;51.934;10.330;2023-10-09T09:50:31;99189.44;;;15.39;100.00
24762;BME280;12865;51.934;10.330;2023-10-09T09:52:58;99196.63;;;15.47;100.00
24762;BME280;12865;51.934;10.330;2023-10-09T09:55:33;99193.63;;;15.42;100.00
24762;BME280;12865;51.934;10.330;2023-10-09T09:58:01;99198.13;;;15.49;100.00
24762;BME280;12865;51.934;10.330;2023-10-09T10:00:35;99189.72;;;15.52;100.00
24762;BME280;12865;51.934;10.330;2023-10-09T10:03:11;99195.66;;;15.56;100.00
24762;BME280;12865;51.934;10.330;2023-10-09T10:05:38;99203.72;;;15.56;100.00
24762;BME280;12865;51.934;10.330;2023-10-09T10:08:06;99200.19;;;15.55;100.00
24762;BME280;12865;51.934;10.330;2023-10-09T10:10:38;99203.19;;;15.60;100.00
24762;BME280;12865;51.934;10.330;2023-10-09T10:13:13;99204.66;;;15.63;100.00
24762;BME280;12865;51.934;10.330;2023-10-09T10:18:30;99196.97;;;15.60;100.00
24762;BME280;12865;51.934;10.330;2023-10-09T10:23:36;99200.63;;;15.67;100.00
24762;BME280;12865;51.934;10.330;2023-10-09T10:26:22;99177.63;;;15.64;100.00
24762;BME280;12865;51.934;10.330;2023-10-09T10:31:55;99217.31;;;15.54;100.00
24762;BME280;12865;51.934;10.330;2023-10-09T10:34:23;99235.09;;;15.47;100.00
24762;BME280;12865;51.934;10.330;2023-10-09T10:36:52;99240.97;;;15.43;100.00
24762;BME280;12865;51.934;10.330;2023-10-09T10:39:24;99241.31;;;15.48;100.00
24762;BME280;12865;51.934;10.330;2023-10-09T10:42:08;99253.75;;;15.49;100.00
24762;BME280;12865;51.934;10.330;2023-10-09T10:44:34;99248.00;;;15.52;100.00
24762;BME280;12865;51.934;10.330;2023-10-09T10:47:10;99247.34;;;15.58;100.00
24762;BME280;12865;51.934;10.330;2023-10-09T10:49:50;99243.66;;;15.67;100.00
24762;BME280;12865;51.934;10.330;2023-10-09T10:52:22;99244.09;;;15.79;100.00
24762;BME280;12865;51.934;10.330;2023-10-09T10:55:11;99250.50;;;15.78;100.00
24762;BME280;12865;51.934;10.330;2023-10-09T10:57:54;99246.09;;;15.85;100.00
24762;BME280;12865;51.934;10.330;2023-10-09T11:00:30;99250.97;;;15.89;100.00
24762;BME280;12865;51.934;10.330;2023-10-09T11:03:21;99264.28;;;15.83;100.00
24762;BME280;12865;51.934;10.330;2023-10-09T11:06:03;99261.91;;;15.80;100.00
24762;BME280;12865;51.934;10.330;2023-10-09T11:08:44;99272.84;;;15.78;100.00
24762;BME280;12865;51.934;10.330;2023-10-09T11:11:19;99260.91;;;15.81;100.00
24762;BME280;12865;51.934;10.330;2023-10-09T11:14:11;99258.41;;;15.79;100.00
24762;BME280;12865;51.934;10.330;2023-10-09T11:16:49;99253.84;;;15.80;100.00
24762;BME280;12865;51.934;10.330;2023-10-09T11:19:19;99258.72;;;15.84;100.00
24762;BME280;12865;51.934;10.330;2023-10-09T11:21:57;99265.97;;;15.84;100.00
24762;BME280;12865;51.934;10.330;2023-10-09T11:24:32;99258.88;;;15.91;100.00
24762;BME280;12865;51.934;10.330;2023-10-09T11:27:02;99251.63;;;15.91;100.00
24762;BME280;12865;51.934;10.330;2023-10-09T11:29:32;99255.69;;;15.87;100.00
24762;BME280;12865;51.934;10.330;2023-10-09T11:32:20;99252.19;;;15.79;100.00
24762;BME280;12865;51.934;10.330;2023-10-09T11:35:09;99256.53;;;15.80;100.00
24762;BME280;12865;51.934;10.330;2023-10-09T11:37:35;99252.00;;;15.80;100.00
24762;BME280;12865;51.934;10.330;2023-10-09T11:40:04;99243.47;;;15.77;100.00
24762;BME280;12865;51.934;10.330;2023-10-09T11:42:48;99238.72;;;15.79;100.00
24762;BME280;12865;51.934;10.330;2023-10-09T11:45:25;99236.72;;;15.81;100.00
24762;BME280;12865;51.934;10.330;2023-10-09T11:47:55;99238.59;;;15.72;100.00
24762;BME280;12865;51.934;10.330;2023-10-09T11:50:41;99248.34;;;15.65;100.00
24762;BME280;12865;51.934;10.330;2023-10-09T11:53:22;99255.56;;;15.64;100.00
24762;BME280;12865;51.934;10.330;2023-10-09T11:55:48;99267.16;;;15.57;100.00
24762;BME280;12865;51.934;10.330;2023-10-09T11:58:14;99274.59;;;15.55;100.00
24762;BME280;12865;51.934;10.330;2023-10-09T12:00:40;99261.31;;;15.53;100.00
24762;BME280;12865;51.934;10.330;2023-10-09T12:03:12;99263.00;;;15.54;100.00
24762;BME280;12865;51.934;10.330;2023-10-09T12:05:38;99268.84;;;15.58;100.00
24762;BME280;12865;51.934;10.330;2023-10-09T12:08:07;99269.69;;;15.58;100.00
24762;BME280;12865;51.934;10.330;2023-10-09T12:10:34;99265.47;;;15.64;100.00
24762;BME280;12865;51.934;10.330;2023-10-09T12:13:03;99265.47;;;15.64;100.00
24762;BME280;12865;51.934;10.330;2023-10-09T12:15:30;99264.00;;;15.61;100.00
24762;BME280;12865;51.934;10.330;2023-10-09T12:18:06;99280.13;;;15.53;100.00
24762;BME280;12865;51.934;10.330;2023-10-09T12:20:35;99281.09;;;15.52;100.00
24762;BME280;12865;51.934;10.330;2023-10-09T12:23:02;99281.78;;;15.46;100.00
24762;BME280;12865;51.934;10.330;2023-10-09T12:25:32;99282.25;;;15.50;100.00
24762;BME280;12865;51.934;10.330;2023-10-09T12:28:02;99287.47;;;15.43;100.00
24762;BME280;12865;51.934;10.330;2023-10-09T12:30:31;99284.94;;;15.50;100.00
24762;BME280;12865;51.934;10.330;2023-10-09T12:32:57;99282.25;;;15.50;100.00
24762;BME280;12865;51.934;10.330;2023-10-09T12:35:28;99288.31;;;15.52;100.00
24762;BME280;12865;51.934;10.330;2023-10-09T12:37:59;99279.97;;;15.55;100.00
24762;BME280;12865;51.934;10.330;2023-10-09T12:40:25;99276.75;;;15.59;100.00
24762;BME280;12865;51.934;10.330;2023-10-09T12:42:54;99280.28;;;15.68;100.00
24762;BME280;12865;51.934;10.330;2023-10-09T12:45:21;99269.53;;;15.68;100.00
24762;BME280;12865;51.934;10.330;2023-10-09T12:47:55;99278.44;;;15.68;100.00
24762;BME280;12865;51.934;10.330;2023-10-09T12:50:35;99277.75;;;15.75;100.00
24762;BME280;12865;51.934;10.330;2023-10-09T12:53:06;99273.03;;;15.77;100.00
24762;BME280;12865;51.934;10.330;2023-10-09T12:55:38;99258.56;;;15.78;100.00
24762;BME280;12865;51.934;10.330;2023-10-09T12:58:08;99262.59;;;15.82;100.00
24762;BME280;12865;51.934;10.330;2023-10-09T13:00:37;99257.72;;;15.77;100.00
24762;BME280;12865;51.934;10.330;2023-10-09T13:03:12;99259.41;;;15.78;100.00
24762;BME280;12865;51.934;10.330;2023-10-09T13:05:52;99257.06;;;15.75;100.00
24762;BME280;12865;51.934;10.330;2023-10-09T13:08:26;99259.22;;;15.80;100.00
24762;BME280;12865;51.934;10.330;2023-10-09T13:11:08;99252.69;;;15.74;100.00
24762;BME280;12865;51.934;10.330;2023-10-09T13:13:41;99255.22;;;15.76;100.00
24762;BME280;12865;51.934;10.330;2023-10-09T13:16:20;99269.50;;;15.76;100.00
24762;BME280;12865;51.934;10.330;2023-10-09T13:18:52;99290.81;;;15.78;100.00
24762;BME280;12865;51.934;10.330;2023-10-09T13:21:23;99277.38;;;15.78;100.00
24762;BME280;12865;51.934;10.330;2023-10-09T13:23:49;99276.06;;;15.74;100.00
24762;BME280;12865;51.934;10.330;2023-10-09T13:26:16;99280.44;;;15.75;100.00
24762;BME280;12865;51.934;10.330;2023-10-09T13:28:49;99278.91;;;15.72;100.00
24762;BME280;12865;51.934;10.330;2023-10-09T13:31:16;99289.50;;;15.74;100.00
24762;BME280;12865;51.934;10.330;2023-10-09T13:33:44;99290.00;;;15.69;100.00
24762;BME280;12865;51.934;10.330;2023-10-09T13:36:10;99287.13;;;15.70;100.00
24762;BME280;12865;51.934;10.330;2023-10-09T13:38:45;99292.84;;;15.76;100.00
24762;BME280;12865;51.934;10.330;2023-10-09T13:41:10;99291.19;;;15.66;100.00
24762;BME280;12865;51.934;10.330;2023-10-09T13:43:41;99285.47;;;15.69;100.00